Terminal Aerodrome Forecast
Issued by NWS

Current Version | Previous Version | Text Only | Print | Product List | Glossary On
Versions: 1 2 3 4 5 6 7 8 9 10 11
000
FTUS45 KABQ 190535
TAFFMN
TAF
KFMN 190535Z 1906/2006 21015KT P6SM FEW060
     FM190700 21011KT P6SM BKN060
     FM191800 23015G25KT P6SM BKN080
     FM192000 23024G34KT P6SM VCSH OVC080
     FM200100 26020G30KT P6SM VCSH OVC080=

USA.gov is the U.S. government's official web portal to all federal, state and local government web resources and services.